Time;durP1;ratioP1;P1;durP2;ratioP2;P2;SDS_P1;SDS_P2;PMS_P1;PMS_P2;Temp;Humidity;BMP_temperature;BMP_pressure;BME280_temperature;BME280_humidity;BME280_pressure;Samples;Min_cycle;Max_cycle;Signal;HPM_P1;HPM_P2
2021/10/13 00:01:14;;;;;;;4.22;2.28;;;;;;;;;;5069375;28;20589;-50
2021/10/13 00:03:40;;;;;;;4.03;1.70;;;;;;;;;;5069537;28;20032;-50
2021/10/13 00:06:06;;;;;;;3.05;2.33;;;;;;;;;;5069054;28;20402;-50
2021/10/13 00:08:32;;;;;;;4.20;2.28;;;;;;;;;;5069131;28;20024;-51
2021/10/13 00:10:58;;;;;;;3.92;1.70;;;;;;;;;;5069065;28;20060;-52
2021/10/13 00:13:24;;;;;;;2.63;1.70;;;;;;;;;;5069531;28;20060;-50
2021/10/13 00:15:51;;;;;;;3.80;1.58;;;;;;;;;;5068836;28;20032;-49
2021/10/13 00:18:17;;;;;;;3.28;1.70;;;;;;;;;;5069029;28;20016;-52
2021/10/13 00:20:43;;;;;;;3.13;1.80;;;;;;;;;;5068972;28;20364;-49
2021/10/13 00:23:10;;;;;;;2.58;1.48;;;;;;;;;;5068695;28;20470;-50
2021/10/13 00:25:36;;;;;;;2.45;1.50;;;;;;;;;;5069006;28;20040;-50
2021/10/13 00:28:03;;;;;;;2.88;1.70;;;;;;;;;;5071639;28;20032;-53
2021/10/13 00:30:29;;;;;;;1.98;1.48;;;;;;;;;;5089211;28;20024;-51
2021/10/13 00:32:55;;;;;;;2.47;1.40;;;;;;;;;;5088768;28;20036;-49
2021/10/13 00:35:21;;;;;;;1.95;1.38;;;;;;;;;;5089091;28;20107;-49
2021/10/13 00:37:47;;;;;;;2.03;1.20;;;;;;;;;;5088442;28;20028;-51
2021/10/13 00:40:13;;;;;;;2.00;1.52;;;;;;;;;;5088665;28;20028;-49
2021/10/13 00:42:39;;;;;;;1.75;1.45;;;;;;;;;;5087343;28;20036;-49
2021/10/13 00:45:06;;;;;;;3.97;1.60;;;;;;;;;;5088071;28;20019;-52
2021/10/13 00:47:33;;;;;;;2.38;1.38;;;;;;;;;;5088596;28;20081;-53
2021/10/13 00:49:59;;;;;;;3.83;1.50;;;;;;;;;;5088422;28;20017;-52
2021/10/13 00:52:26;;;;;;;1.90;1.30;;;;;;;;;;5085552;28;20135;-53
2021/10/13 00:54:52;;;;;;;3.65;1.55;;;;;;;;;;5068187;28;20445;-49
2021/10/13 00:57:18;;;;;;;3.17;1.75;;;;;;;;;;5067590;28;20558;-49
2021/10/13 00:59:44;;;;;;;3.15;1.33;;;;;;;;;;5068547;28;20017;-49
2021/10/13 01:02:12;;;;;;;1.88;1.30;;;;;;;;;;5066724;28;20541;-50
2021/10/13 01:04:40;;;;;;;3.10;1.50;;;;;;;;;;5066774;28;20029;-48
2021/10/13 01:07:22;;;;;;;2.50;1.48;;;;;;;;;;5071830;28;20024;-51
2021/10/13 01:10:06;;;;;;;2.15;1.55;;;;;;;;;;5068157;28;20092;-49
2021/10/13 01:12:51;;;;;;;3.15;1.60;;;;;;;;;;5066490;28;20480;-50
2021/10/13 01:15:27;;;;;;;2.38;1.33;;;;;;;;;;5066283;28;20020;-50
2021/10/13 01:17:54;;;;;;;2.88;1.63;;;;;;;;;;5069108;28;20023;-50
2021/10/13 01:20:38;;;;;;;3.42;1.60;;;;;;;;;;5086164;28;20102;-51
2021/10/13 01:23:05;;;;;;;4.70;1.88;;;;;;;;;;5074513;28;20067;-54
2021/10/13 01:25:40;;;;;;;3.35;1.67;;;;;;;;;;5066279;28;20044;-53
2021/10/13 01:28:11;;;;;;;2.33;1.58;;;;;;;;;;5080511;28;20383;-49
2021/10/13 01:30:43;;;;;;;3.42;1.67;;;;;;;;;;5086429;28;20028;-50
2021/10/13 01:33:11;;;;;;;4.07;1.77;;;;;;;;;;5086100;28;20492;-52
2021/10/13 01:35:43;;;;;;;3.05;1.67;;;;;;;;;;5086544;28;20035;-52
2021/10/13 01:38:12;;;;;;;2.85;1.30;;;;;;;;;;5085881;28;20024;-51
2021/10/13 01:40:39;;;;;;;2.28;1.50;;;;;;;;;;5086292;28;20039;-52
2021/10/13 01:43:06;;;;;;;2.33;1.30;;;;;;;;;;5085620;28;20024;-52
2021/10/13 01:45:35;;;;;;;3.22;1.35;;;;;;;;;;5086243;28;20119;-50
2021/10/13 01:48:02;;;;;;;2.35;1.33;;;;;;;;;;5079537;28;20035;-50
2021/10/13 01:50:28;;;;;;;2.03;1.15;;;;;;;;;;5066225;28;20112;-50
2021/10/13 01:52:55;;;;;;;1.30;1.20;;;;;;;;;;5065937;28;20024;-53
2021/10/13 01:55:23;;;;;;;2.05;1.20;;;;;;;;;;5066833;28;20032;-51
2021/10/13 01:57:50;;;;;;;2.80;1.50;;;;;;;;;;5066081;28;20028;-50
2021/10/13 02:00:17;;;;;;;1.98;1.40;;;;;;;;;;5065889;28;20487;-50
2021/10/13 02:02:44;;;;;;;2.03;1.30;;;;;;;;;;5066047;28;20024;-51
2021/10/13 02:05:13;;;;;;;1.92;1.20;;;;;;;;;;5065934;28;20032;-52
2021/10/13 02:07:40;;;;;;;2.10;1.10;;;;;;;;;;5065737;28;20048;-52
2021/10/13 02:10:07;;;;;;;2.40;1.20;;;;;;;;;;5067211;28;20491;-53
2021/10/13 02:12:34;;;;;;;2.20;1.10;;;;;;;;;;5069821;28;20067;-52
2021/10/13 02:15:05;;;;;;;1.13;0.90;;;;;;;;;;5069333;28;20040;-51
2021/10/13 02:17:32;;;;;;;1.88;1.00;;;;;;;;;;5069562;28;20028;-51
2021/10/13 02:19:58;;;;;;;1.73;1.55;;;;;;;;;;5069401;28;20028;-50
2021/10/13 02:22:28;;;;;;;2.55;1.23;;;;;;;;;;5069404;28;20059;-52
2021/10/13 02:24:54;;;;;;;2.95;1.70;;;;;;;;;;5068876;28;20032;-53
2021/10/13 02:27:32;;;;;;;4.03;2.35;;;;;;;;;;5086074;28;20035;-52
2021/10/13 02:29:58;;;;;;;3.83;2.22;;;;;;;;;;5089272;28;20410;-52
2021/10/13 02:32:25;;;;;;;4.22;1.98;;;;;;;;;;5089545;28;20036;-51
2021/10/13 02:34:52;;;;;;;3.30;1.90;;;;;;;;;;5089746;28;20380;-52
2021/10/13 02:37:18;;;;;;;2.80;1.88;;;;;;;;;;5089277;28;20020;-52
2021/10/13 02:39:44;;;;;;;2.45;1.63;;;;;;;;;;5089575;28;20093;-52
2021/10/13 02:42:10;;;;;;;2.00;1.50;;;;;;;;;;5088771;28;20032;-49
2021/10/13 02:44:36;;;;;;;1.88;1.13;;;;;;;;;;5088168;28;20038;-53
2021/10/13 02:47:12;;;;;;;3.17;1.73;;;;;;;;;;5087788;28;20028;-55
2021/10/13 02:49:38;;;;;;;1.77;1.45;;;;;;;;;;5068865;28;20552;-52
2021/10/13 02:52:10;;;;;;;2.08;1.45;;;;;;;;;;5068360;28;20021;-52
2021/10/13 02:54:40;;;;;;;3.55;2.13;;;;;;;;;;5068910;28;20056;-51
2021/10/13 02:57:06;;;;;;;2.72;1.83;;;;;;;;;;5068641;28;20017;-50
2021/10/13 02:59:36;;;;;;;1.98;1.63;;;;;;;;;;5070994;28;20020;-52
2021/10/13 03:02:04;;;;;;;3.97;1.88;;;;;;;;;;5088271;28;20056;-51
2021/10/13 03:04:38;;;;;;;2.92;1.65;;;;;;;;;;5084470;28;20622;-50
2021/10/13 03:07:06;;;;;;;1.85;1.42;;;;;;;;;;5068748;28;20549;-51
2021/10/13 03:09:33;;;;;;;2.22;1.75;;;;;;;;;;5068533;28;20457;-49
2021/10/13 03:12:01;;;;;;;3.35;1.80;;;;;;;;;;5068142;28;20028;-49
2021/10/13 03:14:28;;;;;;;4.07;1.60;;;;;;;;;;5068521;28;20108;-49
2021/10/13 03:16:55;;;;;;;2.20;1.73;;;;;;;;;;5068292;28;20089;-50
2021/10/13 03:19:22;;;;;;;2.90;1.55;;;;;;;;;;5068560;28;20024;-50
2021/10/13 03:21:51;;;;;;;2.47;1.60;;;;;;;;;;5067409;28;20025;-48
2021/10/13 03:24:18;;;;;;;2.78;1.50;;;;;;;;;;5068456;28;20738;-48
2021/10/13 03:26:51;;;;;;;2.30;1.40;;;;;;;;;;5068207;28;20021;-49
2021/10/13 03:29:17;;;;;;;2.22;1.45;;;;;;;;;;5068207;28;20036;-49
2021/10/13 03:31:43;;;;;;;1.60;1.25;;;;;;;;;;5068226;28;20047;-50
2021/10/13 03:34:10;;;;;;;1.65;1.33;;;;;;;;;;5068311;28;20032;-48
2021/10/13 03:36:43;;;;;;;2.22;1.15;;;;;;;;;;5068797;28;20024;-49
2021/10/13 03:39:10;;;;;;;2.23;1.30;;;;;;;;;;5067774;28;20020;-51
2021/10/13 03:41:36;;;;;;;1.85;1.52;;;;;;;;;;5068426;28;20406;-53
2021/10/13 03:44:02;;;;;;;2.35;1.38;;;;;;;;;;5067881;28;20048;-51
2021/10/13 03:46:28;;;;;;;1.20;1.10;;;;;;;;;;5067959;28;20028;-52
2021/10/13 03:48:55;;;;;;;1.50;1.40;;;;;;;;;;5067412;28;20036;-49
2021/10/13 03:51:21;;;;;;;3.03;1.42;;;;;;;;;;5067679;28;20130;-49
2021/10/13 03:53:47;;;;;;;2.88;1.20;;;;;;;;;;5067660;28;20025;-49
2021/10/13 03:56:14;;;;;;;2.08;1.08;;;;;;;;;;5067882;28;20021;-49
2021/10/13 03:58:40;;;;;;;4.13;1.38;;;;;;;;;;5067693;28;20050;-49
2021/10/13 04:01:06;;;;;;;1.42;1.30;;;;;;;;;;5068038;28;20089;-48
2021/10/13 04:03:32;;;;;;;1.45;1.00;;;;;;;;;;5067350;28;20034;-49
2021/10/13 04:05:58;;;;;;;1.85;1.45;;;;;;;;;;5067248;28;20043;-49
2021/10/13 04:08:25;;;;;;;1.77;1.25;;;;;;;;;;5067665;28;20479;-51
2021/10/13 04:10:51;;;;;;;3.38;1.30;;;;;;;;;;5066910;28;20074;-49
2021/10/13 04:13:17;;;;;;;1.48;1.27;;;;;;;;;;5067443;28;20480;-50
2021/10/13 04:15:43;;;;;;;2.60;1.60;;;;;;;;;;5067415;28;20499;-51
2021/10/13 04:18:09;;;;;;;1.67;1.40;;;;;;;;;;5066894;28;20510;-49
2021/10/13 04:20:36;;;;;;;1.83;1.48;;;;;;;;;;5067863;28;20487;-52
2021/10/13 04:23:02;;;;;;;2.30;1.63;;;;;;;;;;5067054;28;20070;-50
2021/10/13 04:25:28;;;;;;;1.25;1.15;;;;;;;;;;5067158;28;20136;-49
2021/10/13 04:27:54;;;;;;;3.45;1.50;;;;;;;;;;5066681;28;20025;-49
2021/10/13 04:30:20;;;;;;;2.28;1.70;;;;;;;;;;5067394;28;20111;-53
2021/10/13 04:32:46;;;;;;;2.35;1.50;;;;;;;;;;5065060;28;20032;-52
2021/10/13 04:35:13;;;;;;;2.95;1.80;;;;;;;;;;5066678;28;20039;-52
2021/10/13 04:37:39;;;;;;;3.08;1.60;;;;;;;;;;5066522;28;20028;-52
2021/10/13 04:40:06;;;;;;;3.53;1.67;;;;;;;;;;5066513;28;20016;-51
2021/10/13 04:42:33;;;;;;;2.47;1.50;;;;;;;;;;5065589;28;20097;-50
2021/10/13 04:44:59;;;;;;;2.67;1.55;;;;;;;;;;5065453;28;20580;-50
2021/10/13 04:47:25;;;;;;;2.83;1.65;;;;;;;;;;5071519;28;20142;-53
2021/10/13 04:49:51;;;;;;;2.72;1.70;;;;;;;;;;5086011;28;20101;-56
2021/10/13 04:52:17;;;;;;;2.03;1.30;;;;;;;;;;5084143;28;20641;-52
2021/10/13 04:54:43;;;;;;;2.50;1.60;;;;;;;;;;5066513;28;20166;-54
2021/10/13 04:57:10;;;;;;;1.75;1.30;;;;;;;;;;5067526;28;20059;-49
2021/10/13 04:59:36;;;;;;;1.77;1.30;;;;;;;;;;5087054;28;20024;-51
2021/10/13 05:02:02;;;;;;;2.15;1.42;;;;;;;;;;5083731;28;20106;-53
2021/10/13 05:04:28;;;;;;;1.60;1.27;;;;;;;;;;5066379;28;20070;-52
2021/10/13 05:06:54;;;;;;;2.63;1.50;;;;;;;;;;5066235;28;20574;-52
2021/10/13 05:09:20;;;;;;;2.53;1.67;;;;;;;;;;5066956;28;20044;-52
2021/10/13 05:11:46;;;;;;;2.35;1.70;;;;;;;;;;5066350;28;20387;-52
2021/10/13 05:14:13;;;;;;;2.13;1.20;;;;;;;;;;5066426;28;20032;-53
2021/10/13 05:16:42;;;;;;;2.65;1.40;;;;;;;;;;5066516;28;20151;-52
2021/10/13 05:19:09;;;;;;;2.15;1.58;;;;;;;;;;5066006;28;20438;-52
2021/10/13 05:21:35;;;;;;;2.28;1.30;;;;;;;;;;5066484;28;20029;-52
2021/10/13 05:24:01;;;;;;;2.30;1.33;;;;;;;;;;5065651;28;20472;-53
2021/10/13 05:26:28;;;;;;;2.05;1.40;;;;;;;;;;5066130;28;20111;-52
2021/10/13 05:28:54;;;;;;;2.92;1.40;;;;;;;;;;5066088;28;20074;-49
2021/10/13 05:31:20;;;;;;;1.95;1.42;;;;;;;;;;5067017;28;20071;-49
2021/10/13 05:33:46;;;;;;;1.90;1.30;;;;;;;;;;5066046;28;20021;-49
2021/10/13 05:36:12;;;;;;;2.08;1.50;;;;;;;;;;5066132;28;20099;-50
2021/10/13 05:38:38;;;;;;;2.47;1.38;;;;;;;;;;5065532;28;20029;-49
2021/10/13 05:41:04;;;;;;;1.42;1.30;;;;;;;;;;5065974;28;20024;-49
2021/10/13 05:43:30;;;;;;;3.05;1.40;;;;;;;;;;5066632;28;20376;-50
2021/10/13 05:45:56;;;;;;;2.65;1.20;;;;;;;;;;5070057;28;20383;-52
2021/10/13 05:48:23;;;;;;;1.67;1.40;;;;;;;;;;5070069;28;20033;-51
2021/10/13 05:50:49;;;;;;;2.92;2.28;;;;;;;;;;5070245;28;20040;-51
2021/10/13 05:53:15;;;;;;;3.03;2.13;;;;;;;;;;5069994;28;20032;-52
2021/10/13 05:55:42;;;;;;;4.13;3.25;;;;;;;;;;5070158;28;20055;-51
2021/10/13 05:58:08;;;;;;;5.55;2.70;;;;;;;;;;5069520;28;20016;-50
2021/10/13 06:00:34;;;;;;;7.80;3.95;;;;;;;;;;5070238;28;20029;-49
2021/10/13 06:03:00;;;;;;;5.97;3.33;;;;;;;;;;5080415;28;20505;-49
2021/10/13 06:05:27;;;;;;;5.78;3.10;;;;;;;;;;5085470;28;20491;-49
2021/10/13 06:07:53;;;;;;;5.38;2.85;;;;;;;;;;5079720;28;20440;-50
2021/10/13 06:10:19;;;;;;;3.72;2.35;;;;;;;;;;5081715;28;20530;-49
2021/10/13 06:12:45;;;;;;;5.18;2.22;;;;;;;;;;5070209;28;20029;-52
2021/10/13 06:15:11;;;;;;;3.70;2.28;;;;;;;;;;5089890;28;20524;-49
2021/10/13 06:17:38;;;;;;;4.13;2.28;;;;;;;;;;5089809;28;20398;-51
2021/10/13 06:20:04;;;;;;;3.50;2.10;;;;;;;;;;5089062;28;20035;-49
2021/10/13 06:22:30;;;;;;;3.00;2.03;;;;;;;;;;5079597;28;20043;-51
2021/10/13 06:24:57;;;;;;;2.88;1.83;;;;;;;;;;5076698;28;20111;-52
2021/10/13 06:27:23;;;;;;;2.55;1.90;;;;;;;;;;5085200;28;20114;-52
2021/10/13 06:29:49;;;;;;;3.70;1.85;;;;;;;;;;5069679;28;20157;-51
2021/10/13 06:32:15;;;;;;;2.50;1.67;;;;;;;;;;5082831;28;20055;-51
2021/10/13 06:34:41;;;;;;;2.55;1.60;;;;;;;;;;5082388;28;20518;-52
2021/10/13 06:37:07;;;;;;;2.88;1.55;;;;;;;;;;5088894;28;20046;-49
2021/10/13 06:39:33;;;;;;;3.55;2.30;;;;;;;;;;5089020;28;20407;-50
2021/10/13 06:41:59;;;;;;;3.78;2.55;;;;;;;;;;5088580;28;20077;-52
2021/10/13 06:44:26;;;;;;;3.85;2.13;;;;;;;;;;5074818;28;20463;-50
2021/10/13 06:46:54;;;;;;;4.47;2.30;;;;;;;;;;5083595;28;20034;-50
2021/10/13 06:49:20;;;;;;;2.28;1.88;;;;;;;;;;5087959;28;20613;-49
2021/10/13 06:51:47;;;;;;;4.60;2.53;;;;;;;;;;5081506;28;20141;-56
2021/10/13 06:54:13;;;;;;;3.97;2.58;;;;;;;;;;5068661;28;20403;-52
2021/10/13 06:56:39;;;;;;;6.88;3.70;;;;;;;;;;5080757;28;20020;-52
2021/10/13 06:59:05;;;;;;;6.15;3.15;;;;;;;;;;5084705;28;20024;-52
2021/10/13 07:01:33;;;;;;;5.03;2.75;;;;;;;;;;5069698;28;20411;-51
2021/10/13 07:03:59;;;;;;;5.38;3.20;;;;;;;;;;5066541;28;20033;-49
2021/10/13 07:06:25;;;;;;;5.78;3.60;;;;;;;;;;5076685;28;20033;-52
2021/10/13 07:08:52;;;;;;;4.85;3.20;;;;;;;;;;5070005;28;20078;-49
2021/10/13 07:11:23;;;;;;;6.53;2.97;;;;;;;;;;5069744;28;20027;-48
2021/10/13 07:13:49;;;;;;;6.97;3.20;;;;;;;;;;5084086;28;20055;-52
2021/10/13 07:16:15;;;;;;;7.32;3.30;;;;;;;;;;5079456;28;20029;-53
2021/10/13 07:18:42;;;;;;;5.63;3.00;;;;;;;;;;5080907;28;20064;-50
2021/10/13 07:21:08;;;;;;;3.67;2.20;;;;;;;;;;5066516;28;20052;-52
2021/10/13 07:23:34;;;;;;;6.72;2.85;;;;;;;;;;5084567;28;20542;-51
2021/10/13 07:26:00;;;;;;;4.63;2.92;;;;;;;;;;5086106;28;20101;-49
2021/10/13 07:28:28;;;;;;;6.25;3.42;;;;;;;;;;5088288;28;20024;-51
2021/10/13 07:30:54;;;;;;;4.15;2.65;;;;;;;;;;5072012;28;20016;-50
2021/10/13 07:33:20;;;;;;;3.33;2.42;;;;;;;;;;5067857;28;20400;-52
2021/10/13 07:35:46;;;;;;;2.50;2.30;;;;;;;;;;5087123;28;20462;-52
2021/10/13 07:38:12;;;;;;;3.50;2.45;;;;;;;;;;5086663;28;20028;-50
2021/10/13 07:40:39;;;;;;;2.83;2.00;;;;;;;;;;5073822;28;20024;-53
2021/10/13 07:43:05;;;;;;;5.30;2.47;;;;;;;;;;5086194;28;20447;-49
2021/10/13 07:45:31;;;;;;;3.30;2.42;;;;;;;;;;5068925;28;20115;-53
2021/10/13 07:47:57;;;;;;;3.22;2.08;;;;;;;;;;5086528;28;20673;-49
2021/10/13 07:50:25;;;;;;;4.00;1.80;;;;;;;;;;5071519;28;20031;-51
2021/10/13 07:52:51;;;;;;;4.47;2.17;;;;;;;;;;5075075;28;20121;-49
2021/10/13 07:55:17;;;;;;;4.43;2.10;;;;;;;;;;5082373;28;20024;-50
2021/10/13 07:57:43;;;;;;;2.95;2.00;;;;;;;;;;5083635;28;20529;-51
2021/10/13 08:00:10;;;;;;;3.03;1.95;;;;;;;;;;5073941;28;20028;-48
2021/10/13 08:02:36;;;;;;;2.38;1.80;;;;;;;;;;5067262;28;20931;-49
2021/10/13 08:05:02;;;;;;;2.40;2.10;;;;;;;;;;5075183;28;20461;-49
2021/10/13 08:07:28;;;;;;;2.05;1.58;;;;;;;;;;5066639;28;20032;-50
2021/10/13 08:09:54;;;;;;;2.45;1.63;;;;;;;;;;5072751;28;20543;-50
2021/10/13 08:12:20;;;;;;;1.45;1.20;;;;;;;;;;5087501;28;20119;-53
2021/10/13 08:14:46;;;;;;;3.08;1.38;;;;;;;;;;5087012;28;20093;-52
2021/10/13 08:17:12;;;;;;;1.83;1.20;;;;;;;;;;5081014;28;20040;-49
2021/10/13 08:19:38;;;;;;;2.15;1.77;;;;;;;;;;5081312;28;20423;-51
2021/10/13 08:22:04;;;;;;;2.65;2.10;;;;;;;;;;5083102;28;20035;-51
2021/10/13 08:24:31;;;;;;;5.00;2.10;;;;;;;;;;5077799;28;20035;-53
2021/10/13 08:26:57;;;;;;;2.97;1.80;;;;;;;;;;5086253;28;20031;-52
2021/10/13 08:29:23;;;;;;;3.55;2.13;;;;;;;;;;5084350;28;20095;-50
2021/10/13 08:31:49;;;;;;;3.28;1.95;;;;;;;;;;5087205;28;20435;-51
2021/10/13 08:34:15;;;;;;;3.03;1.83;;;;;;;;;;5069947;28;20577;-50
2021/10/13 08:36:41;;;;;;;2.90;1.83;;;;;;;;;;5066777;28;20040;-53
2021/10/13 08:39:07;;;;;;;2.67;1.60;;;;;;;;;;5067190;28;20506;-50
2021/10/13 08:41:33;;;;;;;4.00;2.05;;;;;;;;;;5086917;28;20028;-52
2021/10/13 08:43:59;;;;;;;4.00;1.85;;;;;;;;;;5086030;28;20034;-53
2021/10/13 08:46:25;;;;;;;2.80;2.50;;;;;;;;;;5068703;28;20407;-48
2021/10/13 08:48:51;;;;;;;5.05;2.42;;;;;;;;;;5081947;28;20096;-50
2021/10/13 08:51:17;;;;;;;4.53;3.10;;;;;;;;;;5086442;28;20043;-48
2021/10/13 08:53:43;;;;;;;2.92;2.28;;;;;;;;;;5070346;28;20030;-55
2021/10/13 08:56:10;;;;;;;3.40;1.92;;;;;;;;;;5065535;28;20075;-53
2021/10/13 08:58:40;;;;;;;5.70;2.70;;;;;;;;;;5065439;28;20024;-52
2021/10/13 09:01:09;;;;;;;4.00;2.05;;;;;;;;;;5065584;28;20096;-50
2021/10/13 09:03:37;;;;;;;2.25;1.98;;;;;;;;;;5079422;28;20024;-50
2021/10/13 09:06:14;;;;;;;3.40;2.33;;;;;;;;;;5084577;28;20035;-50
2021/10/13 09:08:58;;;;;;;4.85;2.30;;;;;;;;;;5083572;28;20024;-49
2021/10/13 09:11:33;;;;;;;2.22;1.85;;;;;;;;;;5075281;28;20039;-49
2021/10/13 09:14:19;;;;;;;2.75;1.85;;;;;;;;;;5081778;28;20221;-49
2021/10/13 09:17:03;;;;;;;2.60;1.70;;;;;;;;;;5086036;28;20077;-52
2021/10/13 09:19:35;;;;;;;3.72;1.60;;;;;;;;;;5085877;28;20026;-52
2021/10/13 09:22:05;;;;;;;3.58;1.80;;;;;;;;;;5086147;28;20040;-49
2021/10/13 09:24:32;;;;;;;2.42;1.40;;;;;;;;;;5086498;28;20029;-49
2021/10/13 09:27:17;;;;;;;3.45;1.48;;;;;;;;;;5086148;28;20100;-50
2021/10/13 09:29:43;;;;;;;1.60;1.33;;;;;;;;;;5086025;28;20551;-51
2021/10/13 09:32:09;;;;;;;4.15;1.85;;;;;;;;;;5085709;28;20024;-49
2021/10/13 09:34:35;;;;;;;2.25;1.23;;;;;;;;;;5086129;28;20020;-53
2021/10/13 09:37:02;;;;;;;1.17;0.90;;;;;;;;;;5086074;28;20028;-50
2021/10/13 09:39:30;;;;;;;1.08;0.88;;;;;;;;;;5086355;28;20044;-49
2021/10/13 09:41:57;;;;;;;1.23;0.80;;;;;;;;;;5085155;28;21021;-51
2021/10/13 09:44:23;;;;;;;1.23;1.10;;;;;;;;;;5086012;28;20503;-53
2021/10/13 09:46:49;;;;;;;1.73;1.20;;;;;;;;;;5083637;28;20046;-49
2021/10/13 09:49:26;;;;;;;1.25;0.98;;;;;;;;;;5070505;28;20071;-50
2021/10/13 09:51:52;;;;;;;2.03;1.30;;;;;;;;;;5065813;28;20113;-52
2021/10/13 09:54:25;;;;;;;0.95;0.85;;;;;;;;;;5067601;28;20052;-50
2021/10/13 09:56:52;;;;;;;2.95;1.30;;;;;;;;;;5070991;28;20702;-49
2021/10/13 09:59:18;;;;;;;2.78;1.40;;;;;;;;;;5086751;28;20024;-52
2021/10/13 10:01:46;;;;;;;2.05;1.48;;;;;;;;;;5080485;28;20445;-53
2021/10/13 10:04:16;;;;;;;1.80;1.15;;;;;;;;;;5075836;28;20502;-50
2021/10/13 10:06:44;;;;;;;1.50;1.35;;;;;;;;;;5086109;28;20032;-52
2021/10/13 10:09:15;;;;;;;1.73;1.33;;;;;;;;;;5085804;28;20428;-52
2021/10/13 10:11:41;;;;;;;1.20;0.93;;;;;;;;;;5085518;28;20071;-52
2021/10/13 10:14:26;;;;;;;1.38;1.23;;;;;;;;;;5085714;28;20111;-51
2021/10/13 10:16:52;;;;;;;1.90;1.13;;;;;;;;;;5084671;28;20024;-52
2021/10/13 10:19:25;;;;;;;1.67;1.20;;;;;;;;;;5085930;28;20479;-52
2021/10/13 10:21:55;;;;;;;1.50;1.00;;;;;;;;;;5085922;28;20042;-52
2021/10/13 10:24:26;;;;;;;1.10;1.00;;;;;;;;;;5086304;28;20521;-52
2021/10/13 10:26:53;;;;;;;3.10;1.10;;;;;;;;;;5085580;28;20414;-53
2021/10/13 10:29:20;;;;;;;2.40;1.20;;;;;;;;;;5086470;28;20116;-52
2021/10/13 10:31:57;;;;;;;0.68;0.68;;;;;;;;;;5087778;28;20043;-52
2021/10/13 10:34:25;;;;;;;1.05;0.93;;;;;;;;;;5089640;28;20024;-51
2021/10/13 10:36:51;;;;;;;3.63;1.40;;;;;;;;;;5089971;28;20042;-51
2021/10/13 10:39:18;;;;;;;1.63;1.00;;;;;;;;;;5070134;28;20082;-50
2021/10/13 10:41:54;;;;;;;1.88;1.40;;;;;;;;;;5067973;28;20476;-50
2021/10/13 10:44:41;;;;;;;2.22;1.40;;;;;;;;;;5069950;28;20094;-50
2021/10/13 10:47:11;;;;;;;1.20;1.00;;;;;;;;;;5068829;28;20020;-49
2021/10/13 10:49:46;;;;;;;1.40;1.10;;;;;;;;;;5069310;28;20028;-49
2021/10/13 10:52:23;;;;;;;1.52;1.40;;;;;;;;;;5068308;28;20025;-50
2021/10/13 10:54:52;;;;;;;1.40;1.00;;;;;;;;;;5068377;28;20017;-54
2021/10/13 10:57:31;;;;;;;1.35;0.80;;;;;;;;;;5076624;28;20020;-53
2021/10/13 10:59:57;;;;;;;1.77;0.88;;;;;;;;;;5088920;28;20078;-53
2021/10/13 11:02:24;;;;;;;0.68;0.68;;;;;;;;;;5088915;28;20387;-49
2021/10/13 11:05:04;;;;;;;1.38;0.77;;;;;;;;;;5078545;28;20105;-51
2021/10/13 11:07:30;;;;;;;1.20;0.88;;;;;;;;;;5068762;28;20032;-49
2021/10/13 11:10:02;;;;;;;1.95;1.10;;;;;;;;;;5067076;28;20553;-53
2021/10/13 11:12:45;;;;;;;1.60;0.82;;;;;;;;;;5067389;28;20566;-52
2021/10/13 11:15:11;;;;;;;1.00;0.70;;;;;;;;;;5069178;28;20024;-49
2021/10/13 11:17:37;;;;;;;1.45;0.60;;;;;;;;;;5068706;28;20099;-50
2021/10/13 11:20:07;;;;;;;2.03;0.90;;;;;;;;;;5068303;28;20098;-49
2021/10/13 11:22:33;;;;;;;0.85;0.82;;;;;;;;;;5068414;28;20028;-49
2021/10/13 11:25:00;;;;;;;1.33;0.90;;;;;;;;;;5068164;28;20032;-50
2021/10/13 11:27:26;;;;;;;1.75;0.90;;;;;;;;;;5068473;28;20035;-53
2021/10/13 11:29:52;;;;;;;1.70;0.90;;;;;;;;;;5068805;28;20078;-51
2021/10/13 11:32:18;;;;;;;1.02;0.77;;;;;;;;;;5068997;28;20445;-53
2021/10/13 11:34:56;;;;;;;2.15;1.38;;;;;;;;;;5068496;28;20029;-52
2021/10/13 11:37:26;;;;;;;1.15;1.00;;;;;;;;;;5070649;28;20693;-55
2021/10/13 11:39:52;;;;;;;2.80;1.17;;;;;;;;;;5077349;28;20028;-54
2021/10/13 11:42:18;;;;;;;2.17;0.98;;;;;;;;;;5087556;28;20024;-50
2021/10/13 11:44:49;;;;;;;0.70;0.68;;;;;;;;;;5086521;28;20107;-53
2021/10/13 11:47:15;;;;;;;1.45;0.90;;;;;;;;;;5082577;28;20112;-54
2021/10/13 11:49:54;;;;;;;1.10;0.95;;;;;;;;;;5073773;28;20110;-53
2021/10/13 11:52:21;;;;;;;1.33;1.02;;;;;;;;;;5088310;28;20023;-53
2021/10/13 11:54:47;;;;;;;0.77;0.77;;;;;;;;;;5088324;28;20101;-55
2021/10/13 11:57:16;;;;;;;1.25;0.68;;;;;;;;;;5088304;28;20023;-54
2021/10/13 11:59:42;;;;;;;0.70;0.70;;;;;;;;;;5087719;28;20027;-53
2021/10/13 12:02:16;;;;;;;1.45;0.82;;;;;;;;;;5087492;28;20103;-52
2021/10/13 12:04:53;;;;;;;0.60;0.52;;;;;;;;;;5084128;28;21089;-52
2021/10/13 12:07:20;;;;;;;0.60;0.60;;;;;;;;;;5068274;28;20024;-52
2021/10/13 12:09:48;;;;;;;1.17;0.60;;;;;;;;;;5067114;28;20101;-52
2021/10/13 12:12:14;;;;;;;1.63;0.80;;;;;;;;;;5067488;28;20024;-52
2021/10/13 12:14:40;;;;;;;1.58;0.80;;;;;;;;;;5067372;28;20025;-51
2021/10/13 12:17:21;;;;;;;1.77;1.00;;;;;;;;;;5067327;28;20095;-52
2021/10/13 12:19:48;;;;;;;1.05;0.70;;;;;;;;;;5067706;28;20147;-51
2021/10/13 12:22:14;;;;;;;0.93;0.80;;;;;;;;;;5067285;28;20029;-53
2021/10/13 12:24:40;;;;;;;1.92;0.80;;;;;;;;;;5067477;28;20121;-52
2021/10/13 12:27:09;;;;;;;0.95;0.80;;;;;;;;;;5086911;28;20416;-51
2021/10/13 12:29:43;;;;;;;0.52;0.52;;;;;;;;;;5085539;28;20028;-52
2021/10/13 12:32:19;;;;;;;2.85;0.95;;;;;;;;;;5077050;28;20031;-53
2021/10/13 12:34:45;;;;;;;2.85;1.15;;;;;;;;;;5087162;28;20024;-54
2021/10/13 12:37:11;;;;;;;1.70;0.90;;;;;;;;;;5087272;28;20130;-54
2021/10/13 12:39:37;;;;;;;1.00;0.70;;;;;;;;;;5079572;28;20033;-52
2021/10/13 12:42:06;;;;;;;1.50;1.00;;;;;;;;;;5070751;28;20548;-51
2021/10/13 12:44:32;;;;;;;1.60;1.00;;;;;;;;;;5086473;28;20040;-52
2021/10/13 12:47:05;;;;;;;0.90;0.80;;;;;;;;;;5086848;28;20026;-50
2021/10/13 12:49:33;;;;;;;1.00;0.93;;;;;;;;;;5086934;28;20046;-49
2021/10/13 12:52:05;;;;;;;0.73;0.60;;;;;;;;;;5073775;28;20029;-54
2021/10/13 12:54:33;;;;;;;1.63;1.00;;;;;;;;;;5073563;28;20109;-54
2021/10/13 12:56:59;;;;;;;1.35;0.85;;;;;;;;;;5086049;28;20044;-59
2021/10/13 12:59:25;;;;;;;2.28;0.90;;;;;;;;;;5086470;28;20411;-54
2021/10/13 13:01:52;;;;;;;1.08;0.70;;;;;;;;;;5071106;28;20024;-54
2021/10/13 13:04:19;;;;;;;1.20;0.82;;;;;;;;;;5077807;28;20085;-57
2021/10/13 13:06:46;;;;;;;0.70;0.70;;;;;;;;;;5065673;28;20020;-54
2021/10/13 13:09:11;;;;;;;0.63;0.60;;;;;;;;;;5080401;28;21142;-51
2021/10/13 13:11:38;;;;;;;1.77;0.70;;;;;;;;;;5087849;28;20038;-50
2021/10/13 13:14:05;;;;;;;0.55;0.52;;;;;;;;;;5084241;28;20052;-51
2021/10/13 13:16:33;;;;;;;1.42;0.80;;;;;;;;;;5068110;28;20502;-54
2021/10/13 13:18:59;;;;;;;0.75;0.70;;;;;;;;;;5066622;28;20047;-52
2021/10/13 13:21:25;;;;;;;1.45;0.90;;;;;;;;;;5078129;28;20063;-50
2021/10/13 13:23:52;;;;;;;1.25;0.70;;;;;;;;;;5071792;28;20149;-52
2021/10/13 13:26:18;;;;;;;0.70;0.70;;;;;;;;;;5087156;28;20059;-52
2021/10/13 13:28:45;;;;;;;1.55;0.82;;;;;;;;;;5087393;28;20033;-50
2021/10/13 13:31:11;;;;;;;0.98;0.85;;;;;;;;;;5077138;28;20051;-52
2021/10/13 13:33:37;;;;;;;1.30;0.73;;;;;;;;;;5085843;28;20103;-52
2021/10/13 13:36:03;;;;;;;3.08;0.90;;;;;;;;;;5081456;28;20024;-53
2021/10/13 13:38:29;;;;;;;0.80;0.80;;;;;;;;;;5087513;28;20039;-53
2021/10/13 13:40:55;;;;;;;2.17;1.10;;;;;;;;;;5078755;28;20027;-53
2021/10/13 13:43:21;;;;;;;1.35;1.05;;;;;;;;;;5065810;28;20458;-52
2021/10/13 13:45:51;;;;;;;1.48;1.00;;;;;;;;;;5067314;28;20027;-51
2021/10/13 13:48:17;;;;;;;0.90;0.90;;;;;;;;;;5074393;28;20028;-54
2021/10/13 13:50:43;;;;;;;1.70;1.08;;;;;;;;;;5087293;28;20060;-52
2021/10/13 13:53:09;;;;;;;0.82;0.77;;;;;;;;;;5074002;28;20032;-54
2021/10/13 13:55:35;;;;;;;2.63;1.20;;;;;;;;;;5071310;28;20149;-53
2021/10/13 13:58:02;;;;;;;1.10;0.90;;;;;;;;;;5066850;28;20116;-49
2021/10/13 14:00:28;;;;;;;1.63;1.05;;;;;;;;;;5076749;28;20070;-49
2021/10/13 14:02:55;;;;;;;1.63;0.80;;;;;;;;;;5085832;28;20074;-51
2021/10/13 14:05:21;;;;;;;1.77;1.10;;;;;;;;;;5089854;28;20039;-49
2021/10/13 14:07:48;;;;;;;1.10;0.95;;;;;;;;;;5090932;28;20028;-51
2021/10/13 14:10:15;;;;;;;0.80;0.70;;;;;;;;;;5075879;28;20028;-52
2021/10/13 14:12:41;;;;;;;0.93;0.68;;;;;;;;;;5080459;28;20056;-51
2021/10/13 14:15:08;;;;;;;1.65;1.13;;;;;;;;;;5090497;28;20497;-51
2021/10/13 14:17:34;;;;;;;1.45;1.08;;;;;;;;;;5089633;28;20020;-52
2021/10/13 14:20:01;;;;;;;1.52;1.10;;;;;;;;;;5079159;28;20036;-49
2021/10/13 14:22:28;;;;;;;1.58;0.80;;;;;;;;;;5070371;28;20032;-54
2021/10/13 14:24:54;;;;;;;1.33;1.23;;;;;;;;;;5070014;28;20094;-51
2021/10/13 14:27:20;;;;;;;1.40;0.90;;;;;;;;;;5070943;28;20024;-49
2021/10/13 14:29:46;;;;;;;1.85;1.33;;;;;;;;;;5069865;28;20040;-53
2021/10/13 14:32:13;;;;;;;1.92;1.10;;;;;;;;;;5069925;28;20032;-53
2021/10/13 14:34:41;;;;;;;1.30;1.02;;;;;;;;;;5081515;28;20388;-53
2021/10/13 14:37:07;;;;;;;0.60;0.60;;;;;;;;;;5073227;28;20050;-51
2021/10/13 14:39:33;;;;;;;1.33;0.90;;;;;;;;;;5090426;28;20468;-52
2021/10/13 14:42:00;;;;;;;1.05;0.95;;;;;;;;;;5089996;28;20505;-54
2021/10/13 14:44:26;;;;;;;3.00;1.30;;;;;;;;;;5089452;28;20028;-53
2021/10/13 14:46:52;;;;;;;1.58;1.00;;;;;;;;;;5072468;28;20499;-54